createdAt,value
2023-05-10T00:00:05.678Z,12.81
2023-05-10T00:03:09.948Z,12.70
2023-05-10T00:06:13.916Z,12.62
2023-05-10T00:09:18.036Z,12.59
2023-05-10T00:12:22.062Z,12.49
2023-05-10T00:15:25.727Z,12.46
2023-05-10T00:18:29.798Z,12.59
2023-05-10T00:21:34.677Z,12.53
2023-05-10T00:24:38.516Z,12.52
2023-05-10T00:27:42.458Z,12.44
2023-05-10T00:30:46.519Z,12.44
2023-05-10T00:33:50.528Z,12.35
2023-05-10T00:36:54.615Z,12.46
2023-05-10T00:39:58.881Z,12.40
2023-05-10T00:43:02.998Z,12.30
2023-05-10T00:46:07.571Z,12.31
2023-05-10T00:49:11.882Z,12.22
2023-05-10T00:52:16.205Z,12.21
2023-05-10T00:55:21.362Z,12.14
2023-05-10T00:58:29.021Z,12.17
2023-05-10T01:01:33.162Z,12.14
2023-05-10T01:04:38.565Z,12.18
2023-05-10T01:07:43.075Z,12.06
2023-05-10T01:10:47.421Z,12.08
2023-05-10T01:13:58.193Z,12.07
2023-05-10T01:17:02.433Z,12.06
2023-05-10T01:20:11.797Z,12.12
2023-05-10T01:23:37.916Z,12.11
2023-05-10T01:27:00.848Z,12.09
2023-05-10T01:30:36.362Z,12.09
2023-05-10T01:33:55.542Z,12.09
2023-05-10T01:37:07.015Z,12.11
2023-05-10T01:40:39.004Z,12.18
2023-05-10T01:44:04.714Z,12.16
2023-05-10T01:47:12.385Z,12.19
2023-05-10T01:50:20.831Z,12.19
2023-05-10T01:53:25.695Z,12.21
2023-05-10T01:56:32.865Z,12.34
2023-05-10T01:59:41.681Z,12.30
2023-05-10T02:02:48.188Z,12.23
2023-05-10T02:05:54.125Z,12.17
2023-05-10T02:08:58.507Z,12.16
2023-05-10T02:12:04.895Z,12.13
2023-05-10T02:15:11.417Z,12.05
2023-05-10T02:18:17.692Z,12.10
2023-05-10T02:21:23.070Z,12.18
2023-05-10T02:24:28.268Z,12.12
2023-05-10T02:27:32.699Z,12.17
2023-05-10T02:30:37.477Z,12.26
2023-05-10T02:33:42.243Z,12.25
2023-05-10T02:36:46.590Z,12.25
2023-05-10T02:39:51.931Z,12.18
2023-05-10T02:42:57.934Z,12.23
2023-05-10T02:46:05.720Z,12.15
2023-05-10T02:49:10.626Z,12.22
2023-05-10T02:52:22.383Z,12.28
2023-05-10T02:55:33.322Z,12.21
2023-05-10T02:58:37.486Z,12.28
2023-05-10T03:01:42.165Z,12.20
2023-05-10T03:04:46.696Z,12.22
2023-05-10T03:07:52.461Z,12.23
2023-05-10T03:11:17.102Z,12.16
2023-05-10T03:14:37.881Z,12.13
2023-05-10T03:17:56.458Z,12.18
2023-05-10T03:21:06.160Z,12.13
2023-05-10T03:24:12.950Z,12.18
2023-05-10T03:27:17.886Z,12.12
2023-05-10T03:30:22.617Z,12.03
2023-05-10T03:33:26.935Z,12.09
2023-05-10T03:36:31.472Z,12.03
2023-05-10T03:39:36.039Z,12.03
2023-05-10T03:42:39.945Z,12.11
2023-05-10T03:45:43.995Z,12.10
2023-05-10T03:48:48.398Z,12.15
2023-05-10T03:51:52.660Z,12.09
2023-05-10T03:54:57.052Z,12.10
2023-05-10T03:58:01.028Z,12.13
2023-05-10T04:01:05.038Z,12.07
2023-05-10T04:04:09.206Z,12.13
2023-05-10T04:07:13.728Z,12.22
2023-05-10T04:10:18.712Z,12.25
2023-05-10T04:13:23.593Z,12.32
2023-05-10T04:16:27.990Z,12.29
2023-05-10T04:19:32.686Z,12.21
2023-05-10T04:22:37.089Z,12.25
2023-05-10T04:25:41.604Z,12.33
2023-05-10T04:28:46.071Z,12.35
2023-05-10T04:31:50.178Z,12.43
2023-05-10T04:34:54.495Z,12.48
2023-05-10T04:37:58.864Z,12.53
2023-05-10T04:41:10.502Z,12.58
2023-05-10T04:44:14.544Z,12.64
2023-05-10T04:47:18.455Z,12.63
2023-05-10T04:50:22.482Z,12.69
2023-05-10T04:53:26.740Z,12.78
2023-05-10T04:56:30.961Z,12.89
2023-05-10T04:59:37.577Z,12.90
2023-05-10T05:02:48.165Z,13.07
2023-05-10T05:05:52.599Z,13.23
2023-05-10T05:08:56.931Z,13.44
2023-05-10T05:12:01.092Z,13.60
2023-05-10T05:15:07.312Z,13.73
2023-05-10T05:18:13.144Z,13.94
2023-05-10T05:21:18.528Z,14.12
2023-05-10T05:24:22.741Z,14.29
2023-05-10T05:27:28.879Z,14.49
2023-05-10T05:30:33.249Z,14.68
2023-05-10T05:33:37.934Z,14.89
2023-05-10T05:36:41.826Z,14.92
2023-05-10T05:39:46.502Z,15.08
2023-05-10T05:42:50.805Z,15.14
2023-05-10T05:45:55.050Z,15.07
2023-05-10T05:48:59.110Z,15.01
2023-05-10T05:52:04.373Z,15.00
2023-05-10T05:55:08.558Z,15.05
2023-05-10T05:58:12.926Z,15.11
2023-05-10T06:01:16.852Z,15.25
2023-05-10T06:04:21.015Z,15.11
2023-05-10T06:07:25.067Z,15.10
2023-05-10T06:10:29.460Z,15.09
2023-05-10T06:13:34.260Z,15.08
2023-05-10T06:16:38.851Z,15.27
2023-05-10T06:19:42.892Z,15.14
2023-05-10T06:22:46.825Z,15.03
2023-05-10T06:25:51.031Z,15.11
2023-05-10T06:28:55.301Z,15.14
2023-05-10T06:31:59.888Z,15.31
2023-05-10T06:35:04.542Z,15.50
2023-05-10T06:38:11.928Z,15.75
2023-05-10T06:41:16.083Z,16.05
2023-05-10T06:44:20.246Z,16.16
2023-05-10T06:47:24.729Z,16.71
2023-05-10T06:50:29.019Z,17.16
2023-05-10T06:53:33.037Z,17.30
2023-05-10T06:56:37.337Z,16.87
2023-05-10T06:59:41.654Z,17.11
2023-05-10T07:02:46.750Z,17.17
2023-05-10T07:05:51.008Z,17.20
2023-05-10T07:08:54.847Z,17.04
2023-05-10T07:11:59.153Z,17.26
2023-05-10T07:15:04.040Z,17.41
2023-05-10T07:18:08.476Z,17.50
2023-05-10T07:21:13.351Z,17.77
2023-05-10T07:24:17.764Z,18.00
2023-05-10T07:27:21.883Z,18.27
2023-05-10T07:30:25.946Z,18.55
2023-05-10T07:33:30.213Z,19.03
2023-05-10T07:36:34.121Z,19.50
2023-05-10T07:39:38.434Z,20.07
2023-05-10T07:42:42.322Z,20.38
2023-05-10T07:45:46.967Z,20.86
2023-05-10T07:48:51.202Z,21.10
2023-05-10T07:51:54.989Z,20.67
2023-05-10T07:54:59.052Z,19.99
2023-05-10T07:58:03.459Z,19.52
2023-05-10T08:01:07.730Z,19.06
2023-05-10T08:04:12.615Z,18.91
2023-05-10T08:07:16.725Z,19.10
2023-05-10T08:10:20.965Z,18.94
2023-05-10T08:13:25.164Z,18.94
2023-05-10T08:16:29.893Z,18.79
2023-05-10T08:19:34.589Z,18.83
2023-05-10T08:22:38.738Z,18.84
2023-05-10T08:25:42.930Z,18.86
2023-05-10T08:28:47.036Z,18.59
2023-05-10T08:31:51.624Z,18.61
2023-05-10T08:34:56.955Z,18.41
2023-05-10T08:38:01.514Z,18.23
2023-05-10T08:41:06.346Z,18.21
2023-05-10T08:44:11.319Z,17.98
2023-05-10T08:47:19.636Z,17.92
2023-05-10T08:50:24.675Z,17.53
2023-05-10T08:53:32.015Z,17.59
2023-05-10T08:56:37.339Z,17.79
2023-05-10T08:59:41.518Z,17.78
2023-05-10T09:02:47.016Z,17.42
2023-05-10T09:05:51.671Z,17.13
2023-05-10T09:08:56.064Z,17.16
2023-05-10T09:12:00.792Z,16.98
2023-05-10T09:15:06.713Z,16.73
2023-05-10T09:18:10.604Z,16.65
2023-05-10T09:21:14.919Z,16.51
2023-05-10T09:24:19.350Z,16.53
2023-05-10T09:27:29.394Z,16.39
2023-05-10T09:30:33.329Z,16.10
2023-05-10T09:33:48.578Z,15.80
2023-05-10T09:37:05.129Z,15.77
2023-05-10T09:40:12.993Z,15.62
2023-05-10T09:43:16.839Z,15.42
2023-05-10T09:46:21.226Z,15.52
2023-05-10T09:49:25.342Z,15.48
2023-05-10T09:52:30.046Z,15.43
2023-05-10T09:55:37.267Z,15.36
2023-05-10T09:58:41.432Z,15.29
2023-05-10T10:01:52.168Z,15.38
2023-05-10T10:04:56.369Z,15.26
2023-05-10T10:08:01.448Z,15.33
2023-05-10T10:11:05.663Z,15.38
2023-05-10T10:14:10.077Z,15.51
2023-05-10T10:17:14.630Z,15.56
2023-05-10T10:20:20.348Z,15.64
2023-05-10T10:23:24.510Z,15.81
2023-05-10T10:26:28.858Z,15.68
2023-05-10T10:29:53.386Z,15.78
2023-05-10T10:33:29.640Z,15.75
2023-05-10T10:36:40.784Z,15.70
2023-05-10T10:39:45.178Z,15.75
2023-05-10T10:42:50.968Z,15.86
2023-05-10T10:46:15.059Z,15.84
2023-05-10T10:49:19.522Z,15.78
2023-05-10T10:52:34.088Z,15.86
2023-05-10T10:55:48.926Z,15.75
2023-05-10T10:58:54.479Z,15.78
2023-05-10T11:02:01.224Z,15.85
2023-05-10T11:05:30.209Z,15.81
2023-05-10T11:08:41.989Z,15.83
2023-05-10T11:11:52.209Z,15.82
2023-05-10T11:14:58.803Z,15.73
2023-05-10T11:18:24.038Z,15.65
2023-05-10T11:21:28.427Z,15.64
2023-05-10T11:24:32.636Z,15.63
2023-05-10T11:27:38.808Z,15.65
2023-05-10T11:30:45.067Z,15.69
2023-05-10T11:33:52.734Z,15.69
2023-05-10T11:36:57.792Z,15.62
2023-05-10T11:40:01.837Z,15.77
2023-05-10T11:43:06.765Z,15.88
2023-05-10T11:46:12.380Z,15.90
2023-05-10T11:49:16.332Z,15.89
2023-05-10T11:52:21.354Z,16.05
2023-05-10T11:55:25.786Z,16.01
2023-05-10T11:58:29.743Z,16.11
2023-05-10T12:01:34.491Z,16.15
2023-05-10T12:04:39.078Z,15.89
2023-05-10T12:07:43.478Z,15.97
2023-05-10T12:10:47.515Z,16.15
2023-05-10T12:13:51.878Z,16.08
2023-05-10T12:16:58.398Z,16.07
2023-05-10T12:20:19.483Z,16.11
2023-05-10T12:23:23.806Z,16.24
2023-05-10T12:26:29.076Z,16.32
2023-05-10T12:29:33.122Z,16.25
2023-05-10T12:32:42.307Z,16.29
2023-05-10T12:35:53.358Z,16.26
2023-05-10T12:39:03.831Z,16.30
2023-05-10T12:42:08.199Z,16.32
2023-05-10T12:45:12.962Z,16.44
2023-05-10T12:48:16.989Z,16.56
2023-05-10T12:51:22.971Z,16.58
2023-05-10T12:54:27.340Z,16.64
2023-05-10T12:57:31.745Z,16.55
2023-05-10T13:00:36.268Z,16.87
2023-05-10T13:03:40.523Z,16.79
2023-05-10T13:06:44.898Z,16.84
2023-05-10T13:09:48.933Z,16.93
2023-05-10T13:12:53.305Z,17.08
2023-05-10T13:15:57.617Z,17.01
2023-05-10T13:19:01.746Z,17.08
2023-05-10T13:22:05.756Z,17.17
2023-05-10T13:25:09.980Z,16.88
2023-05-10T13:28:13.951Z,17.19
2023-05-10T13:31:18.250Z,17.15
2023-05-10T13:34:22.385Z,17.41
2023-05-10T13:37:26.527Z,17.25
2023-05-10T13:40:30.879Z,17.43
2023-05-10T13:43:35.289Z,17.19
2023-05-10T13:46:40.352Z,17.21
2023-05-10T13:49:44.365Z,17.24
2023-05-10T13:52:48.245Z,17.26
2023-05-10T13:55:52.372Z,17.31
2023-05-10T13:58:58.112Z,17.34
2023-05-10T14:02:05.116Z,17.29
2023-05-10T14:05:09.810Z,17.12
2023-05-10T14:08:14.172Z,16.96
2023-05-10T14:11:18.484Z,16.91
2023-05-10T14:14:22.568Z,16.88
2023-05-10T14:17:26.769Z,16.80
2023-05-10T14:20:30.963Z,16.72
2023-05-10T14:23:35.261Z,16.70
2023-05-10T14:26:39.223Z,16.65
2023-05-10T14:29:43.443Z,16.55
2023-05-10T14:32:47.408Z,16.46
2023-05-10T14:35:51.938Z,16.47
2023-05-10T14:38:56.089Z,16.48
2023-05-10T14:42:00.139Z,16.50
2023-05-10T14:45:05.246Z,16.53
2023-05-10T14:48:12.212Z,16.48
2023-05-10T14:51:16.194Z,16.37
2023-05-10T14:54:20.467Z,16.29
2023-05-10T14:57:24.512Z,16.20
2023-05-10T15:00:30.064Z,16.22
2023-05-10T15:03:34.518Z,16.10
2023-05-10T15:06:39.296Z,15.91
2023-05-10T15:09:43.488Z,15.80
2023-05-10T15:12:47.755Z,15.84
2023-05-10T15:15:52.057Z,15.79
2023-05-10T15:18:56.414Z,15.70
2023-05-10T15:22:00.879Z,15.60
2023-05-10T15:25:05.774Z,15.44
2023-05-10T15:28:10.093Z,15.38
2023-05-10T15:31:14.472Z,15.31
2023-05-10T15:34:18.858Z,15.31
2023-05-10T15:37:24.218Z,15.33
2023-05-10T15:40:28.469Z,15.40
2023-05-10T15:43:32.664Z,15.40
2023-05-10T15:46:38.742Z,15.44
2023-05-10T15:49:42.889Z,15.49
2023-05-10T15:52:46.788Z,15.45
2023-05-10T15:55:51.561Z,15.48
2023-05-10T15:58:55.907Z,15.47
2023-05-10T16:02:00.513Z,15.44
2023-05-10T16:05:04.976Z,15.53
2023-05-10T16:08:08.851Z,15.57
2023-05-10T16:11:13.227Z,15.63
2023-05-10T16:14:17.435Z,15.57
2023-05-10T16:17:21.732Z,15.59
2023-05-10T16:20:25.902Z,15.67
2023-05-10T16:23:29.832Z,15.78
2023-05-10T16:26:40.534Z,15.82
2023-05-10T16:29:44.680Z,15.78
2023-05-10T16:32:49.840Z,15.86
2023-05-10T16:35:53.735Z,15.88
2023-05-10T16:38:57.668Z,15.90
2023-05-10T16:42:01.698Z,15.93
2023-05-10T16:45:10.020Z,15.88
2023-05-10T16:48:14.070Z,15.85
2023-05-10T16:51:18.465Z,15.88
2023-05-10T16:54:23.032Z,15.88
2023-05-10T16:57:27.936Z,15.89
2023-05-10T17:00:31.853Z,15.85
2023-05-10T17:03:36.739Z,15.80
2023-05-10T17:06:41.448Z,15.81
2023-05-10T17:09:47.121Z,15.75
2023-05-10T17:12:51.352Z,15.73
2023-05-10T17:15:55.628Z,15.69
2023-05-10T17:19:01.209Z,15.68
2023-05-10T17:22:05.103Z,15.65
2023-05-10T17:25:09.441Z,15.65
2023-05-10T17:28:13.793Z,15.63
2023-05-10T17:31:18.545Z,15.63
2023-05-10T17:34:22.753Z,15.61
2023-05-10T17:37:26.896Z,15.61
2023-05-10T17:40:31.228Z,15.59
2023-05-10T17:43:35.637Z,15.58
2023-05-10T17:46:39.895Z,15.57
2023-05-10T17:49:43.938Z,15.53
2023-05-10T17:52:48.262Z,15.50
2023-05-10T17:55:53.700Z,15.53
2023-05-10T17:58:58.201Z,15.45
2023-05-10T18:02:02.747Z,15.41
2023-05-10T18:05:07.185Z,15.40
2023-05-10T18:08:11.298Z,15.38
2023-05-10T18:11:15.344Z,15.36
2023-05-10T18:14:28.497Z,15.34
2023-05-10T18:17:40.572Z,15.32
2023-05-10T18:20:46.174Z,15.33
2023-05-10T18:23:50.389Z,15.30
2023-05-10T18:26:54.962Z,15.25
2023-05-10T18:29:59.202Z,15.22
2023-05-10T18:33:03.455Z,15.21
2023-05-10T18:36:08.511Z,15.18
2023-05-10T18:39:13.300Z,15.17
2023-05-10T18:42:18.243Z,15.13
2023-05-10T18:45:22.724Z,15.13
2023-05-10T18:48:27.432Z,15.09
2023-05-10T18:51:31.646Z,15.05
2023-05-10T18:54:36.080Z,15.03
2023-05-10T18:57:43.044Z,15.03
2023-05-10T19:00:46.975Z,14.99
2023-05-10T19:03:51.204Z,14.99
2023-05-10T19:06:55.978Z,14.97
2023-05-10T19:10:00.338Z,14.94
2023-05-10T19:13:04.500Z,14.91
2023-05-10T19:16:16.557Z,14.91
2023-05-10T19:19:21.268Z,14.89
2023-05-10T19:22:44.957Z,14.88
2023-05-10T19:25:51.644Z,14.87
2023-05-10T19:28:57.477Z,14.86
2023-05-10T19:32:01.879Z,14.85
2023-05-10T19:35:06.607Z,14.85
2023-05-10T19:38:11.311Z,14.83
2023-05-10T19:41:15.415Z,14.81
2023-05-10T19:44:19.566Z,14.80
2023-05-10T19:47:23.598Z,14.77
2023-05-10T19:50:27.919Z,14.73
2023-05-10T19:53:32.567Z,14.73
2023-05-10T19:56:36.429Z,14.90
2023-05-10T19:59:40.552Z,14.94
2023-05-10T20:02:44.746Z,14.86
2023-05-10T20:05:48.965Z,14.85
2023-05-10T20:08:53.170Z,14.79
2023-05-10T20:11:56.935Z,14.72
2023-05-10T20:15:01.033Z,14.70
2023-05-10T20:18:05.260Z,14.68
2023-05-10T20:21:09.821Z,14.72
2023-05-10T20:24:14.080Z,14.69
2023-05-10T20:27:18.420Z,14.70
2023-05-10T20:30:22.545Z,14.71
2023-05-10T20:33:27.063Z,14.74
2023-05-10T20:36:31.506Z,14.73
2023-05-10T20:39:35.857Z,14.73
2023-05-10T20:42:39.957Z,14.77
2023-05-10T20:45:44.384Z,14.74
2023-05-10T20:48:48.669Z,14.73
2023-05-10T20:51:53.160Z,14.71
2023-05-10T20:54:57.143Z,14.70
2023-05-10T20:58:02.198Z,14.73
2023-05-10T21:01:08.405Z,14.73
2023-05-10T21:04:12.534Z,14.74
2023-05-10T21:07:16.895Z,14.72
2023-05-10T21:10:21.553Z,14.75
2023-05-10T21:13:25.666Z,14.74
2023-05-10T21:16:29.645Z,14.75
2023-05-10T21:19:34.048Z,14.73
2023-05-10T21:22:38.330Z,14.74
2023-05-10T21:25:42.567Z,14.73
2023-05-10T21:28:46.588Z,14.73
2023-05-10T21:31:50.525Z,14.74
2023-05-10T21:34:54.630Z,14.73
2023-05-10T21:37:58.822Z,14.78
2023-05-10T21:41:06.962Z,14.74
2023-05-10T21:44:11.395Z,14.69
2023-05-10T21:47:15.106Z,14.67
2023-05-10T21:50:19.507Z,14.70
2023-05-10T21:53:23.861Z,14.69
2023-05-10T21:56:28.210Z,14.64
2023-05-10T21:59:32.604Z,14.62
2023-05-10T22:02:36.768Z,14.63
2023-05-10T22:05:40.855Z,14.57
2023-05-10T22:08:45.297Z,14.64
2023-05-10T22:11:49.721Z,14.61
2023-05-10T22:15:06.391Z,14.58
2023-05-10T22:18:13.190Z,14.57
2023-05-10T22:21:17.777Z,14.57
2023-05-10T22:24:21.767Z,14.59
2023-05-10T22:27:26.131Z,14.60
2023-05-10T22:30:32.208Z,14.63
2023-05-10T22:33:37.465Z,14.63
2023-05-10T22:36:41.665Z,14.56
2023-05-10T22:39:46.577Z,14.57
2023-05-10T22:42:50.735Z,14.59
2023-05-10T22:45:54.951Z,14.58
2023-05-10T22:48:59.939Z,14.64
2023-05-10T22:52:04.017Z,14.56
2023-05-10T22:55:09.400Z,14.50
2023-05-10T22:58:13.649Z,14.50
2023-05-10T23:01:17.810Z,14.51
2023-05-10T23:04:22.007Z,14.47
2023-05-10T23:07:26.526Z,14.49
2023-05-10T23:10:30.572Z,14.49
2023-05-10T23:13:34.698Z,14.52
2023-05-10T23:16:39.198Z,14.47
2023-05-10T23:19:43.439Z,14.44
2023-05-10T23:22:47.717Z,14.51
2023-05-10T23:25:52.147Z,14.51
2023-05-10T23:28:56.611Z,14.51
2023-05-10T23:32:00.876Z,14.51
2023-05-10T23:35:05.419Z,14.49
2023-05-10T23:38:09.521Z,14.45
2023-05-10T23:41:13.797Z,14.44
2023-05-10T23:44:17.637Z,14.46
2023-05-10T23:47:21.896Z,14.47
2023-05-10T23:50:26.080Z,14.47
2023-05-10T23:53:29.991Z,14.52
2023-05-10T23:56:33.976Z,14.49
2023-05-10T23:59:38.291Z,14.47
